sensor_id;sensor_type;location;lat;lon;timestamp;P1;durP1;ratioP1;P2;durP2;ratioP2
13432;SDS011;6789;47.678;9.158;2022-08-21T01:13:18;3.45;;;3.10;;
13432;SDS011;6789;47.678;9.158;2022-08-21T02:03:54;6.80;;;6.00;;
13432;SDS011;6789;47.678;9.158;2022-08-21T02:08:46;11.15;;;6.35;;
13432;SDS011;6789;47.678;9.158;2022-08-21T02:13:38;12.48;;;5.97;;
13432;SDS011;6789;47.678;9.158;2022-08-21T02:18:30;7.32;;;6.05;;
13432;SDS011;6789;47.678;9.158;2022-08-21T02:23:37;10.50;;;6.35;;
13432;SDS011;6789;47.678;9.158;2022-08-21T02:28:29;9.75;;;6.75;;
13432;SDS011;6789;47.678;9.158;2022-08-21T02:33:21;9.05;;;6.82;;
13432;SDS011;6789;47.678;9.158;2022-08-21T02:38:19;8.35;;;6.53;;
13432;SDS011;6789;47.678;9.158;2022-08-21T02:43:32;17.08;;;7.68;;
13432;SDS011;6789;47.678;9.158;2022-08-21T02:48:41;9.82;;;6.53;;
13432;SDS011;6789;47.678;9.158;2022-08-21T02:53:33;13.30;;;6.43;;
13432;SDS011;6789;47.678;9.158;2022-08-21T02:58:30;10.55;;;6.07;;
13432;SDS011;6789;47.678;9.158;2022-08-21T03:04:17;16.63;;;6.25;;
13432;SDS011;6789;47.678;9.158;2022-08-21T03:09:10;9.20;;;6.28;;
13432;SDS011;6789;47.678;9.158;2022-08-21T03:14:02;9.60;;;6.32;;
13432;SDS011;6789;47.678;9.158;2022-08-21T03:19:10;11.25;;;7.20;;
13432;SDS011;6789;47.678;9.158;2022-08-21T03:24:16;9.93;;;7.07;;
13432;SDS011;6789;47.678;9.158;2022-08-21T03:29:22;10.38;;;7.18;;
13432;SDS011;6789;47.678;9.158;2022-08-21T03:34:28;9.50;;;6.88;;
13432;SDS011;6789;47.678;9.158;2022-08-21T03:39:20;9.90;;;7.07;;
13432;SDS011;6789;47.678;9.158;2022-08-21T03:44:27;10.10;;;6.45;;
13432;SDS011;6789;47.678;9.158;2022-08-21T03:49:20;9.55;;;6.30;;
13432;SDS011;6789;47.678;9.158;2022-08-21T03:54:12;9.90;;;6.25;;
13432;SDS011;6789;47.678;9.158;2022-08-21T04:04:47;9.35;;;6.70;;
13432;SDS011;6789;47.678;9.158;2022-08-21T04:10:32;8.40;;;6.03;;
13432;SDS011;6789;47.678;9.158;2022-08-21T04:16:05;6.38;;;5.20;;
13432;SDS011;6789;47.678;9.158;2022-08-21T04:21:50;8.65;;;5.03;;
13432;SDS011;6789;47.678;9.158;2022-08-21T04:27:55;7.97;;;6.05;;
13432;SDS011;6789;47.678;9.158;2022-08-21T04:33:42;8.43;;;5.85;;
13432;SDS011;6789;47.678;9.158;2022-08-21T04:39:42;6.80;;;5.45;;
13432;SDS011;6789;47.678;9.158;2022-08-21T04:44:54;9.50;;;6.47;;
13432;SDS011;6789;47.678;9.158;2022-08-21T04:50:57;7.85;;;6.07;;
13432;SDS011;6789;47.678;9.158;2022-08-21T04:56:47;8.40;;;6.10;;
13432;SDS011;6789;47.678;9.158;2022-08-21T05:02:20;7.78;;;5.90;;
13432;SDS011;6789;47.678;9.158;2022-08-21T05:07:57;7.60;;;6.07;;
13432;SDS011;6789;47.678;9.158;2022-08-21T05:13:26;8.20;;;6.30;;
13432;SDS011;6789;47.678;9.158;2022-08-21T05:18:58;7.97;;;5.78;;
13432;SDS011;6789;47.678;9.158;2022-08-21T05:24:28;5.93;;;5.07;;
13432;SDS011;6789;47.678;9.158;2022-08-21T05:29:54;5.97;;;4.82;;
13432;SDS011;6789;47.678;9.158;2022-08-21T05:35:14;7.00;;;5.72;;
13432;SDS011;6789;47.678;9.158;2022-08-21T05:41:16;8.13;;;5.35;;
13432;SDS011;6789;47.678;9.158;2022-08-21T05:46:51;8.50;;;6.15;;
13432;SDS011;6789;47.678;9.158;2022-08-21T05:52:29;8.38;;;6.10;;
13432;SDS011;6789;47.678;9.158;2022-08-21T05:58:07;7.90;;;5.68;;
13432;SDS011;6789;47.678;9.158;2022-08-21T06:03:52;6.60;;;5.43;;
13432;SDS011;6789;47.678;9.158;2022-08-21T06:09:20;5.65;;;4.50;;
13432;SDS011;6789;47.678;9.158;2022-08-21T06:14:52;6.53;;;4.50;;
13432;SDS011;6789;47.678;9.158;2022-08-21T06:26:08;5.95;;;3.25;;
13432;SDS011;6789;47.678;9.158;2022-08-21T06:31:57;3.25;;;2.75;;
13432;SDS011;6789;47.678;9.158;2022-08-21T06:43:34;3.78;;;3.00;;
13432;SDS011;6789;47.678;9.158;2022-08-21T06:49:44;3.15;;;2.85;;
13432;SDS011;6789;47.678;9.158;2022-08-21T06:55:28;4.20;;;3.30;;
13432;SDS011;6789;47.678;9.158;2022-08-21T07:01:35;4.13;;;3.20;;
13432;SDS011;6789;47.678;9.158;2022-08-21T07:06:38;4.38;;;2.90;;
13432;SDS011;6789;47.678;9.158;2022-08-21T07:11:53;4.75;;;3.17;;
13432;SDS011;6789;47.678;9.158;2022-08-21T07:17:45;3.17;;;2.42;;
13432;SDS011;6789;47.678;9.158;2022-08-21T07:23:43;2.75;;;2.55;;
13432;SDS011;6789;47.678;9.158;2022-08-21T07:29:07;4.65;;;2.50;;
13432;SDS011;6789;47.678;9.158;2022-08-21T07:34:35;2.67;;;2.40;;
13432;SDS011;6789;47.678;9.158;2022-08-21T07:40:14;2.85;;;2.30;;
13432;SDS011;6789;47.678;9.158;2022-08-21T07:46:15;2.88;;;2.30;;
13432;SDS011;6789;47.678;9.158;2022-08-21T07:51:54;2.28;;;1.90;;
13432;SDS011;6789;47.678;9.158;2022-08-21T07:57:03;2.55;;;2.00;;
13432;SDS011;6789;47.678;9.158;2022-08-21T08:02:39;3.50;;;1.85;;
13432;SDS011;6789;47.678;9.158;2022-08-21T08:08:38;3.85;;;1.98;;
13432;SDS011;6789;47.678;9.158;2022-08-21T08:14:28;4.68;;;2.28;;
13432;SDS011;6789;47.678;9.158;2022-08-21T08:20:35;3.38;;;2.03;;
13432;SDS011;6789;47.678;9.158;2022-08-21T08:26:40;2.20;;;1.70;;
13432;SDS011;6789;47.678;9.158;2022-08-21T08:31:48;2.38;;;1.85;;
13432;SDS011;6789;47.678;9.158;2022-08-21T08:36:54;2.30;;;1.88;;
13432;SDS011;6789;47.678;9.158;2022-08-21T08:42:14;2.05;;;1.88;;
13432;SDS011;6789;47.678;9.158;2022-08-21T08:48:02;3.45;;;2.00;;
13432;SDS011;6789;47.678;9.158;2022-08-21T09:03:43;2.67;;;1.70;;
13432;SDS011;6789;47.678;9.158;2022-08-21T09:09:24;2.38;;;1.80;;
13432;SDS011;6789;47.678;9.158;2022-08-21T09:32:16;6.70;;;2.03;;
13432;SDS011;6789;47.678;9.158;2022-08-21T09:38:22;4.47;;;2.10;;
13432;SDS011;6789;47.678;9.158;2022-08-21T09:43:52;3.15;;;2.10;;
13432;SDS011;6789;47.678;9.158;2022-08-21T09:50:07;2.47;;;1.88;;
13432;SDS011;6789;47.678;9.158;2022-08-21T09:55:38;2.97;;;2.20;;
13432;SDS011;6789;47.678;9.158;2022-08-21T10:01:46;2.92;;;1.85;;
13432;SDS011;6789;47.678;9.158;2022-08-21T10:07:08;3.13;;;1.98;;
13432;SDS011;6789;47.678;9.158;2022-08-21T10:30:34;2.38;;;1.55;;
13432;SDS011;6789;47.678;9.158;2022-08-21T10:42:28;3.53;;;1.30;;
13432;SDS011;6789;47.678;9.158;2022-08-21T10:48:33;2.00;;;1.40;;
13432;SDS011;6789;47.678;9.158;2022-08-21T11:00:06;1.48;;;1.23;;
13432;SDS011;6789;47.678;9.158;2022-08-21T11:05:39;5.25;;;1.58;;
13432;SDS011;6789;47.678;9.158;2022-08-21T11:11:47;2.35;;;1.48;;
13432;SDS011;6789;47.678;9.158;2022-08-21T11:17:39;3.97;;;1.50;;
13432;SDS011;6789;47.678;9.158;2022-08-21T11:23:02;1.95;;;1.20;;
13432;SDS011;6789;47.678;9.158;2022-08-21T11:28:25;3.67;;;1.70;;
13432;SDS011;6789;47.678;9.158;2022-08-21T11:40:31;1.67;;;1.20;;
13432;SDS011;6789;47.678;9.158;2022-08-21T11:52:43;1.25;;;0.80;;
13432;SDS011;6789;47.678;9.158;2022-08-21T11:59:08;2.60;;;1.10;;
13432;SDS011;6789;47.678;9.158;2022-08-21T12:05:08;3.72;;;1.30;;
13432;SDS011;6789;47.678;9.158;2022-08-21T12:11:48;1.88;;;1.23;;
13432;SDS011;6789;47.678;9.158;2022-08-21T12:18:02;1.02;;;1.02;;
13432;SDS011;6789;47.678;9.158;2022-08-21T12:29:48;3.97;;;1.10;;
13432;SDS011;6789;47.678;9.158;2022-08-21T12:35:43;2.20;;;0.90;;
13432;SDS011;6789;47.678;9.158;2022-08-21T13:00:21;0.80;;;0.80;;
13432;SDS011;6789;47.678;9.158;2022-08-21T13:06:29;1.77;;;1.10;;
13432;SDS011;6789;47.678;9.158;2022-08-21T13:12:31;2.78;;;0.98;;
13432;SDS011;6789;47.678;9.158;2022-08-21T13:17:47;1.85;;;1.10;;
13432;SDS011;6789;47.678;9.158;2022-08-21T13:23:20;1.35;;;0.90;;
13432;SDS011;6789;47.678;9.158;2022-08-21T13:28:51;2.10;;;0.90;;
13432;SDS011;6789;47.678;9.158;2022-08-21T13:41:03;1.73;;;0.88;;
13432;SDS011;6789;47.678;9.158;2022-08-21T13:46:59;1.90;;;0.80;;
13432;SDS011;6789;47.678;9.158;2022-08-21T14:03:41;0.95;;;0.95;;
13432;SDS011;6789;47.678;9.158;2022-08-21T14:09:11;1.05;;;1.00;;
13432;SDS011;6789;47.678;9.158;2022-08-21T14:15:16;1.52;;;0.90;;
13432;SDS011;6789;47.678;9.158;2022-08-21T14:20:37;0.80;;;0.80;;
13432;SDS011;6789;47.678;9.158;2022-08-21T14:26:04;0.90;;;0.90;;
13432;SDS011;6789;47.678;9.158;2022-08-21T14:32:13;0.95;;;0.80;;
13432;SDS011;6789;47.678;9.158;2022-08-21T14:38:20;0.70;;;0.70;;
13432;SDS011;6789;47.678;9.158;2022-08-21T14:49:37;2.17;;;0.80;;
13432;SDS011;6789;47.678;9.158;2022-08-21T14:55:31;1.40;;;0.85;;
13432;SDS011;6789;47.678;9.158;2022-08-21T15:01:38;0.82;;;0.80;;
13432;SDS011;6789;47.678;9.158;2022-08-21T15:07:06;0.98;;;0.68;;
13432;SDS011;6789;47.678;9.158;2022-08-21T15:12:14;1.35;;;0.82;;
13432;SDS011;6789;47.678;9.158;2022-08-21T15:17:43;0.80;;;0.80;;
13432;SDS011;6789;47.678;9.158;2022-08-21T15:23:26;1.23;;;1.13;;
13432;SDS011;6789;47.678;9.158;2022-08-21T15:28:50;0.98;;;0.70;;
13432;SDS011;6789;47.678;9.158;2022-08-21T15:34:18;2.75;;;0.77;;
13432;SDS011;6789;47.678;9.158;2022-08-21T15:39:26;1.33;;;0.70;;
13432;SDS011;6789;47.678;9.158;2022-08-21T15:45:03;1.45;;;0.88;;
13432;SDS011;6789;47.678;9.158;2022-08-21T15:51:20;1.00;;;0.88;;
13432;SDS011;6789;47.678;9.158;2022-08-21T15:56:34;0.85;;;0.80;;
13432;SDS011;6789;47.678;9.158;2022-08-21T16:02:18;1.63;;;0.88;;
13432;SDS011;6789;47.678;9.158;2022-08-21T16:08:05;4.10;;;0.93;;
13432;SDS011;6789;47.678;9.158;2022-08-21T16:13:36;3.13;;;0.80;;
13432;SDS011;6789;47.678;9.158;2022-08-21T16:19:45;1.30;;;0.73;;
13432;SDS011;6789;47.678;9.158;2022-08-21T16:25:38;1.52;;;0.90;;
13432;SDS011;6789;47.678;9.158;2022-08-21T16:31:14;1.33;;;1.10;;
13432;SDS011;6789;47.678;9.158;2022-08-21T16:36:27;0.90;;;0.90;;
13432;SDS011;6789;47.678;9.158;2022-08-21T16:42:11;1.30;;;1.02;;
13432;SDS011;6789;47.678;9.158;2022-08-21T16:48:24;1.40;;;0.90;;
13432;SDS011;6789;47.678;9.158;2022-08-21T16:54:25;1.40;;;0.90;;
13432;SDS011;6789;47.678;9.158;2022-08-21T17:00:18;0.85;;;0.70;;
13432;SDS011;6789;47.678;9.158;2022-08-21T17:06:16;0.75;;;0.75;;
13432;SDS011;6789;47.678;9.158;2022-08-21T17:11:57;1.33;;;0.65;;
13432;SDS011;6789;47.678;9.158;2022-08-21T17:17:14;1.35;;;0.85;;
13432;SDS011;6789;47.678;9.158;2022-08-21T17:22:32;1.73;;;1.00;;
13432;SDS011;6789;47.678;9.158;2022-08-21T17:27:39;1.05;;;0.93;;
13432;SDS011;6789;47.678;9.158;2022-08-21T17:32:53;1.20;;;0.98;;
13432;SDS011;6789;47.678;9.158;2022-08-21T17:38:03;1.40;;;1.00;;
13432;SDS011;6789;47.678;9.158;2022-08-21T17:43:12;1.73;;;0.90;;
13432;SDS011;6789;47.678;9.158;2022-08-21T17:49:01;1.55;;;0.85;;
13432;SDS011;6789;47.678;9.158;2022-08-21T17:54:40;1.48;;;1.10;;
13432;SDS011;6789;47.678;9.158;2022-08-21T17:59:52;1.42;;;1.30;;
13432;SDS011;6789;47.678;9.158;2022-08-21T18:05:36;1.20;;;0.88;;
13432;SDS011;6789;47.678;9.158;2022-08-21T18:16:09;3.92;;;2.00;;
13432;SDS011;6789;47.678;9.158;2022-08-21T18:21:47;1.77;;;1.55;;
13432;SDS011;6789;47.678;9.158;2022-08-21T18:27:25;2.10;;;1.70;;
13432;SDS011;6789;47.678;9.158;2022-08-21T18:38:21;3.55;;;1.98;;
13432;SDS011;6789;47.678;9.158;2022-08-21T18:43:28;2.85;;;1.52;;
13432;SDS011;6789;47.678;9.158;2022-08-21T18:48:35;2.35;;;1.73;;
13432;SDS011;6789;47.678;9.158;2022-08-21T18:53:48;3.38;;;2.00;;
13432;SDS011;6789;47.678;9.158;2022-08-21T18:58:56;3.72;;;2.10;;
13432;SDS011;6789;47.678;9.158;2022-08-21T19:24:03;3.83;;;3.17;;
13432;SDS011;6789;47.678;9.158;2022-08-21T19:36:11;2.03;;;1.40;;
13432;SDS011;6789;47.678;9.158;2022-08-21T19:42:26;1.45;;;1.35;;
13432;SDS011;6789;47.678;9.158;2022-08-21T19:53:38;1.75;;;1.23;;
13432;SDS011;6789;47.678;9.158;2022-08-21T20:11:36;2.67;;;1.60;;
13432;SDS011;6789;47.678;9.158;2022-08-21T20:28:47;5.68;;;1.92;;
13432;SDS011;6789;47.678;9.158;2022-08-21T20:39:30;2.85;;;1.42;;
13432;SDS011;6789;47.678;9.158;2022-08-21T20:51:06;2.78;;;1.70;;
13432;SDS011;6789;47.678;9.158;2022-08-21T21:01:58;2.15;;;1.70;;
13432;SDS011;6789;47.678;9.158;2022-08-21T21:30:46;4.20;;;1.65;;
13432;SDS011;6789;47.678;9.158;2022-08-21T21:36:31;4.15;;;2.00;;
13432;SDS011;6789;47.678;9.158;2022-08-21T22:00:20;2.80;;;2.03;;
13432;SDS011;6789;47.678;9.158;2022-08-21T22:10:59;2.05;;;1.75;;
13432;SDS011;6789;47.678;9.158;2022-08-21T22:16:25;2.40;;;1.52;;
13432;SDS011;6789;47.678;9.158;2022-08-21T22:22:19;2.97;;;1.77;;
13432;SDS011;6789;47.678;9.158;2022-08-21T22:27:37;1.98;;;1.77;;
13432;SDS011;6789;47.678;9.158;2022-08-21T22:32:47;2.22;;;1.70;;
13432;SDS011;6789;47.678;9.158;2022-08-21T22:38:40;3.10;;;1.90;;
13432;SDS011;6789;47.678;9.158;2022-08-21T22:44:04;2.80;;;1.40;;
13432;SDS011;6789;47.678;9.158;2022-08-21T23:01:41;2.53;;;1.70;;
13432;SDS011;6789;47.678;9.158;2022-08-21T23:06:50;2.38;;;1.75;;
13432;SDS011;6789;47.678;9.158;2022-08-21T23:23:33;4.63;;;1.65;;
13432;SDS011;6789;47.678;9.158;2022-08-21T23:35:34;3.15;;;2.15;;
13432;SDS011;6789;47.678;9.158;2022-08-21T23:41:40;4.03;;;2.00;;
13432;SDS011;6789;47.678;9.158;2022-08-21T23:52:35;3.45;;;2.10;;
